Terminal Aerodrome Forecast
Issued by NWS

Home | Current Version | Previous Version | Graphics & Text | Print | Product List | Glossary On
Versions: 1 2 3 4 5 6 7 8 9 10 11 12 13 14 15 16 17 18 19 20 21
000
FTUS43 KFGF 162339
TAFBJI
TAF
KBJI 162339Z 1700/1724 13005KT P6SM OVC014
      TEMPO 1700/1702 -SHRA OVC008
     FM170600 02004KT 4SM SHRA OVC008
     FM171000 36006KT P6SM VCSH OVC003
     FM171300 35007KT P6SM OVC003
     FM171500 35008KT P6SM OVC008
     FM171700 35009KT P6SM BKN010
     FM172100 35008KT P6SM SCT025=

USA.gov is the U.S. government's official web portal to all federal, state and local government web resources and services.